Antholz Obertal
02.09.2026, 18:45
Daten in Echtzeit















57 Messstationen
| Favoriten | Station | Höhe | Datum - Uhrzeit |
t (°C) |
N (mm) |
ff (km/h) |
bb (km/h) |
dd |
rH (%) |
p (hPa) |
sd (h) |
EG (W/m²) |
|---|---|---|---|---|---|---|---|---|---|---|---|---|
| Antholz Obertal | 1327 m | 02.09.2026, 18:45 | 16.7 | 0.4 | 7.2 | 14.4 | NO(41.7°) | 80 | 1016.4 | 06:56 | 79 | |
| Auer | 254 m | 02.09.2026, 18:45 | 27.1 | 0.0 | - | - | - | 65 | 1014.2 | 06:58 | 68 | |
| Barbian Kollmann | 463 m | 02.09.2026, 18:45 | 23.1 | 22.6 | 2.5 | 6.8 | NW(332.6°) | 69 | 1014.3 | 08:09 | 68 | |
| Bozen | 245 m | 02.09.2026, 18:45 | 29.9 | 0.0 | 4.7 | 10.8 | SO(147.8°) | 40 | 1013.5 | 11:04 | 190 | |
| Branzoll | 227 m | 02.09.2026, 18:45 | 27.5 | 0.0 | 6.1 | 12.2 | W(253°) | 57 | 1013.5 | 08:02 | 94 | |
| Brixen - Vahrn | 585 m | 02.09.2026, 18:45 | 22.2 | 0.1 | 4.0 | 7.6 | NW(303.1°) | 76 | 1015.0 | 07:27 | 49 | |
| Bruneck | 831 m | 02.09.2026, 18:45 | 24.3 | 0.0 | 6.1 | 13.7 | N(18.8°) | 45 | 1014.2 | 09:37 | 201 | |
| Corvara | 1530 m | 02.09.2026, 18:45 | 18.2 | 8.3 | 2.9 | 8.3 | SW(212.1°) | 55 | 1014.7 | 09:30 | 173 | |
| Deutschnofen | 1470 m | 02.09.2026, 18:45 | 19.3 | 0.0 | 9.4 | 13.3 | SW(241.9°) | 68 | 1014.0 | 10:27 | 247 | |
| Franzensfeste Grasstein | 833 m | 02.09.2026, 18:45 | 21.1 | 0.0 | 8.3 | 11.9 | SW(233°) | 56 | 1014.3 | - | - | |
| Gargazon | 253 m | 02.09.2026, 18:45 | 28.0 | 0.0 | 3.2 | 5.0 | W(289.4°) | 57 | 1014.6 | 08:58 | 80 | |
| Hintermartell | 1714 m | 02.09.2026, 18:45 | 14.0 | 0.0 | 2.2 | 5.4 | S(194.7°) | 75 | 1020.5 | 05:23 | 37 | |
| Jenesien | 972 m | 02.09.2026, 18:45 | 22.5 | 0.3 | 0.7 | 4.0 | S(182.5°) | 65 | 1015.0 | 09:58 | 162 | |
| Kaltern Oberplanitzing | 492 m | 02.09.2026, 18:45 | 23.1 | 0.0 | 4.7 | 9.0 | SW(228.9°) | 66 | 1015.6 | 09:11 | 44 | |
| Karerpass | 1713 m | 02.09.2026, 18:45 | 18.1 | 0.5 | 6.8 | 13.7 | W(268°) | 57 | 1014.2 | 10:09 | 202 | |
| Laas Eyrs | 874 m | 02.09.2026, 18:45 | 22.8 | 0.0 | 9.0 | 16.2 | SO(125.2°) | 53 | 1014.7 | 09:30 | 37 | |
| Laimburg | 224 m | 02.09.2026, 18:45 | 25.2 | 0.0 | 1.1 | 3.6 | W(273.8°) | 80 | 1016.2 | 07:43 | 61 | |
| Langtaufers Grub | 1844 m | 02.09.2026, 18:45 | 17.8 | 0.0 | 13.3 | 18.4 | SW(233.5°) | 34 | 1014.6 | 09:19 | 221 | |
| Marienberg | 1312 m | 02.09.2026, 18:45 | 21.2 | 0.0 | - | - | - | 27 | 1014.5 | 08:10 | 26 | |
| Meran | 333 m | 02.09.2026, 18:45 | 26.4 | 0.1 | 2.9 | 6.1 | NO(39°) | 77 | 1014.5 | 06:57 | 60 | |
| Mühlwald | 1140 m | 02.09.2026, 18:45 | 17.7 | 0.0 | - | - | - | 76 | 1017.1 | - | - | |
| Naturns | 537 m | 02.09.2026, 18:45 | 26.8 | 0.0 | 11.5 | 19.1 | SO(114.1°) | 44 | 1014.9 | 09:55 | 185 | |
| Obervintl | 747 m | 02.09.2026, 18:45 | 24.7 | 0.0 | 7.9 | 15.5 | W(249.9°) | 45 | 1014.9 | 08:57 | 174 | |
| Pens | 1452 m | 02.09.2026, 18:45 | 16.9 | 0.0 | - | - | - | 76 | 1016.9 | - | - | |
| Pfelders | 1622 m | 02.09.2026, 18:45 | 16.5 | 0.0 | 2.2 | 11.2 | N(20.3°) | 67 | 1016.2 | 08:32 | 42 | |
| Pfitsch St. Jakob | 1438 m | 02.09.2026, 18:45 | 18.1 | 0.0 | 1.8 | 6.1 | SW(213.6°) | 54 | 1015.8 | 08:29 | 197 | |
| Pflersch | 1152 m | 02.09.2026, 18:45 | 17.7 | 0.0 | 3.6 | 7.6 | NW(293.2°) | 74 | 1016.7 | 04:37 | 37 | |
| Pfunders | 1169 m | 02.09.2026, 18:45 | 17.8 | 0.1 | 2.9 | 7.9 | W(264.1°) | 50 | 1015.3 | 06:33 | 65 | |
| Platt in Passeier | 1143 m | 02.09.2026, 18:45 | 18.6 | 0.0 | 5.0 | 6.8 | S(198.4°) | 70 | 1016.3 | 10:13 | 34 | |
| Prettau | 1448 m | 02.09.2026, 18:45 | 18.9 | 0.0 | 4.7 | 19.4 | NW(294.6°) | 45 | 1015.6 | 08:22 | 76 | |
| Radein | 1550 m | 02.09.2026, 18:45 | 18.1 | 0.0 | 2.9 | 6.5 | W(282°) | 73 | 1016.0 | 06:19 | 78 | |
| Rein in Taufers | 1562 m | 02.09.2026, 18:45 | 15.1 | 0.0 | 5.0 | 8.6 | SO(135.2°) | 89 | 1016.6 | 08:09 | 85 | |
| Ridnaun | 1365 m | 02.09.2026, 18:45 | 19.1 | 0.0 | - | - | - | 56 | 1018.7 | - | - | |
| Ritten Siffian | 989 m | 02.09.2026, 18:45 | 23.5 | 1.0 | 18.0 | 25.6 | W(266.7°) | 45 | 1014.2 | 10:11 | 221 | |
| Salurn | 214 m | 02.09.2026, 18:45 | 26.1 | 0.0 | 2.5 | 5.0 | SO(136.8°) | 54 | 1015.4 | 01:14 | 44 | |
| Sand i.T. Mühlen | 850 m | 02.09.2026, 18:45 | 21.7 | 0.0 | 11.2 | 22.3 | W(291°) | 67 | 1015.1 | 08:16 | 71 | |
| Sarnthein | 970 m | 02.09.2026, 18:45 | 20.7 | 0.0 | 4.0 | 7.9 | W(291.4°) | 73 | 1015.8 | 08:29 | 66 | |
| Schlanders | 698 m | 02.09.2026, 18:45 | 25.8 | 0.0 | 2.9 | 6.8 | O(68.1°) | 57 | 1014.3 | 10:39 | 53 | |
| Schnals Vernagt | 1697 m | 02.09.2026, 18:45 | 18.6 | 0.0 | - | - | - | 58 | 1015.9 | - | - | |
| Sexten | 1322 m | 02.09.2026, 18:45 | 18.2 | 0.1 | 11.2 | 20.5 | S(168.6°) | 69 | 1014.0 | 06:38 | 71 | |
| St. Magdalena in Gsies | 1414 m | 02.09.2026, 18:45 | 16.5 | 0.1 | 10.8 | 15.1 | NO(32°) | 65 | 1020.4 | 08:05 | 78 | |
| St. Martin in Passeier | 588 m | 02.09.2026, 18:45 | 22.7 | 0.0 | 1.1 | 2.5 | NO(35.4°) | 83 | 1016.5 | 06:38 | 35 | |
| St. Martin in Thurn | 1151 m | 02.09.2026, 18:45 | 18.5 | 0.2 | 2.5 | 8.3 | W(266.7°) | 77 | 1018.1 | 09:02 | 61 | |
| St. Valentin a.d. Haide | 1500 m | 02.09.2026, 18:45 | 18.2 | 0.0 | 14.4 | 19.8 | W(291.7°) | 36 | 1015.9 | 08:46 | 38 | |
| St. Veit in Prags | 1350 m | 02.09.2026, 18:45 | 17.9 | 0.1 | - | - | - | 65 | 1017.8 | - | - | |
| St. Walburg | 1142 m | 02.09.2026, 18:45 | 21.0 | 0.0 | 5.4 | 10.8 | W(277.2°) | 66 | 1015.3 | 08:12 | 116 | |
| Sterzing | 939 m | 02.09.2026, 18:45 | 23.2 | 0.0 | 6.5 | 11.9 | NW(308.8°) | 37 | 1015.9 | 08:31 | 70 | |
| Sulden | 1902 m | 02.09.2026, 18:45 | 14.2 | 0.0 | - | - | - | 52 | 1016.6 | 06:38 | 36 | |
| Terenten | 1350 m | 02.09.2026, 18:45 | 19.8 | 0.0 | 10.1 | 15.1 | NW(295.7°) | 48 | 1014.7 | 08:58 | 70 | |
| Toblach | 1218 m | 02.09.2026, 18:45 | 21.4 | 0.1 | 20.2 | 30.2 | O(89.9°) | 54 | 1015.1 | 08:38 | 213 | |
| Ulten Weißbrunn | 1883 m | 02.09.2026, 18:45 | 13.4 | 0.0 | - | - | - | 79 | 1017.7 | 07:33 | 37 | |
| Vals | 1409 m | 02.09.2026, 18:45 | 17.2 | 0.0 | 1.4 | 5.0 | NW(294.3°) | 72 | 1016.9 | 07:17 | 78 | |
| Villnöss | 1327 m | 02.09.2026, 18:45 | 17.5 | 2.7 | 6.8 | 8.6 | NW(323.4°) | 69 | 1016.0 | 09:58 | 94 | |
| Völs am Schlern | 840 m | 02.09.2026, 18:45 | 25.1 | 0.2 | 4.3 | 14.0 | SW(232.8°) | 46 | 1017.2 | 09:06 | 169 | |
| Welsberg | 1129 m | 02.09.2026, 18:45 | 20.4 | 0.1 | 2.9 | 5.0 | W(250.1°) | 59 | 1015.4 | 10:36 | 212 | |
| Welschnofen | 1126 m | 02.09.2026, 18:45 | 22.9 | 0.0 | - | - | - | 53 | 1015.0 | 09:43 | 203 | |
| Wolkenstein | 1594 m | 02.09.2026, 18:45 | 13.9 | 4.2 | - | - | - | 77 | 1018.0 | - | - |
Legende mit den gemessenen Werten:
t:Lufttemperatur (°C)
N:Niederschlagssumme seit Mitternacht (mm)
ff:Mittlere Windgeschwindigkeit (km/h)
bb:Windböe (km/h)
dd:Windrichtung
rH:Relative Luftfeuchtigkeit (%)
p:Luftdruck (hPa)
sd:Sonnenscheindauer (h)
EG:Globalstrahlung (W/m²)